createdAt,value
2019-04-28T00:04:17.350Z,8.10
2019-04-28T00:09:21.568Z,9.80
2019-04-28T00:14:26.214Z,9.90
2019-04-28T00:19:30.959Z,9.70
2019-04-28T00:24:51.563Z,9.70
2019-04-28T00:29:55.167Z,9.60
2019-04-28T00:34:58.635Z,9.40
2019-04-28T00:40:02.442Z,9.40
2019-04-28T00:45:07.936Z,9.30
2019-04-28T00:50:12.506Z,9.30
2019-04-28T00:55:16.301Z,9.10
2019-04-28T01:00:23.105Z,9.10
2019-04-28T01:05:26.593Z,7.60
2019-04-28T01:10:31.171Z,8.90
2019-04-28T01:15:49.643Z,7.40
2019-04-28T01:20:53.168Z,8.80
2019-04-28T01:25:57.231Z,8.60
2019-04-28T01:31:19.570Z,8.70
2019-04-28T01:36:23.564Z,8.70
2019-04-28T01:41:29.644Z,8.70
2019-04-28T01:46:35.665Z,8.70
2019-04-28T01:56:50.402Z,8.60
2019-04-28T02:01:56.644Z,8.50
2019-04-28T02:07:02.161Z,8.50
2019-04-28T02:17:10.478Z,8.40
2019-04-28T02:27:43.576Z,8.40
2019-04-28T02:37:51.198Z,8.50
2019-04-28T02:42:55.419Z,8.50
2019-04-28T02:48:02.464Z,8.60
2019-04-28T02:53:26.411Z,8.70
2019-04-28T02:58:31.264Z,8.80
2019-04-28T03:08:40.436Z,8.40
2019-04-28T03:13:44.594Z,8.50
2019-04-28T03:18:48.031Z,8.50
2019-04-28T03:23:51.968Z,8.60
2019-04-28T03:29:24.627Z,8.50
2019-04-28T03:34:52.949Z,8.60
2019-04-28T03:39:54.749Z,8.70
2019-04-28T03:45:01.071Z,8.90
2019-04-28T03:50:05.945Z,9.00
2019-04-28T03:55:11.108Z,9.00
2019-04-28T04:00:14.935Z,8.90
2019-04-28T04:05:20.880Z,9.00
2019-04-28T04:10:34.660Z,9.00
2019-04-28T04:15:49.416Z,9.20
2019-04-28T04:20:52.263Z,9.40
2019-04-28T04:25:57.119Z,9.50
2019-04-28T04:36:06.793Z,9.80
2019-04-28T04:41:11.243Z,10.00
2019-04-28T04:46:22.389Z,9.90
2019-04-28T04:51:26.069Z,10.10
2019-04-28T04:56:30.246Z,10.20
2019-04-28T05:02:05.625Z,10.30
2019-04-28T05:07:10.873Z,10.70
2019-04-28T05:12:15.007Z,10.80
2019-04-28T05:17:20.170Z,11.00
2019-04-28T05:22:25.553Z,11.00
2019-04-28T05:27:30.053Z,11.20
2019-04-28T05:32:43.110Z,11.10
2019-04-28T05:37:40.596Z,11.20
2019-04-28T05:43:00.779Z,11.30
2019-04-28T05:48:04.690Z,11.50
2019-04-28T05:53:30.350Z,11.70
2019-04-28T05:58:42.685Z,12.10
2019-04-28T06:03:46.649Z,12.30
2019-04-28T06:09:12.598Z,12.80
2019-04-28T06:14:16.329Z,13.10
2019-04-28T06:19:20.252Z,13.50
2019-04-28T06:24:23.641Z,13.60
2019-04-28T06:29:26.997Z,13.70
2019-04-28T06:34:30.448Z,13.90
2019-04-28T06:39:34.061Z,13.90
2019-04-28T06:44:37.379Z,13.80
2019-04-28T06:49:41.833Z,13.80
2019-04-28T06:54:45.170Z,13.80
2019-04-28T06:59:48.510Z,13.70
2019-04-28T07:05:01.574Z,13.80
2019-04-28T07:09:58.332Z,14.00
2019-04-28T07:15:03.083Z,13.90
2019-04-28T07:20:20.207Z,13.60
2019-04-28T07:25:23.109Z,13.80
2019-04-28T07:30:27.814Z,13.60
2019-04-28T07:35:31.252Z,13.80
2019-04-28T07:40:34.580Z,14.00
2019-04-28T07:45:37.923Z,14.20
2019-04-28T07:50:41.381Z,14.30
2019-04-28T07:55:47.628Z,14.30
2019-04-28T08:00:51.681Z,14.50
2019-04-28T08:05:55.045Z,14.50
2019-04-28T08:10:58.734Z,14.50
2019-04-28T08:16:02.963Z,14.40
2019-04-28T08:21:07.297Z,14.80
2019-04-28T08:26:11.554Z,13.30
2019-04-28T08:31:17.640Z,14.90
2019-04-28T08:36:21.726Z,14.90
2019-04-28T08:41:25.127Z,15.00
2019-04-28T08:46:28.990Z,14.80
2019-04-28T08:51:32.437Z,14.80
2019-04-28T08:56:36.020Z,14.60
2019-04-28T09:01:39.399Z,14.60
2019-04-28T09:06:42.785Z,14.40
2019-04-28T09:11:46.866Z,14.50
2019-04-28T09:16:50.969Z,14.70
2019-04-28T09:21:55.467Z,14.70
2019-04-28T09:27:00.210Z,14.80
2019-04-28T09:32:03.940Z,14.80
2019-04-28T09:37:07.402Z,14.60
2019-04-28T09:42:29.287Z,14.30
2019-04-28T09:47:32.669Z,14.20
2019-04-28T09:52:36.054Z,14.20
2019-04-28T09:57:40.189Z,14.20
2019-04-28T10:02:44.438Z,14.30
2019-04-28T10:07:47.794Z,10.60
2019-04-28T10:12:51.117Z,14.30
2019-04-28T10:17:54.421Z,14.70
2019-04-28T10:22:57.741Z,14.70
2019-04-28T10:28:01.253Z,14.30
2019-04-28T10:33:04.959Z,14.20
2019-04-28T10:38:09.282Z,14.30
2019-04-28T10:43:13.269Z,14.30
2019-04-28T10:48:17.077Z,14.50
2019-04-28T10:53:20.950Z,14.40
2019-04-28T10:58:25.325Z,14.00
2019-04-28T11:03:29.543Z,13.80
2019-04-28T11:08:52.525Z,13.90
2019-04-28T11:13:57.007Z,13.80
2019-04-28T11:19:01.337Z,13.70
2019-04-28T11:29:08.552Z,13.40
2019-04-28T11:44:43.152Z,12.30
2019-04-28T11:49:46.507Z,12.30
2019-04-28T11:54:49.844Z,12.30
2019-04-28T11:59:54.205Z,12.40
2019-04-28T12:10:11.038Z,12.40
2019-04-28T12:15:45.922Z,12.60
2019-04-28T12:20:50.210Z,12.80
2019-04-28T12:25:53.744Z,12.50
2019-04-28T12:30:57.160Z,12.50
2019-04-28T12:36:00.559Z,12.40
2019-04-28T12:41:05.201Z,12.30
2019-04-28T12:51:13.747Z,12.00
2019-04-28T12:56:17.150Z,11.90
2019-04-28T13:01:49.333Z,11.90
2019-04-28T13:07:02.561Z,11.70
2019-04-28T13:12:06.181Z,11.60
2019-04-28T13:17:10.244Z,11.50
2019-04-28T13:22:14.276Z,11.60
2019-04-28T13:27:17.681Z,11.60
2019-04-28T13:32:22.299Z,11.30
2019-04-28T13:37:26.252Z,11.20
2019-04-28T13:47:35.162Z,11.10
2019-04-28T13:52:38.539Z,11.10
2019-04-28T13:57:42.421Z,11.10
2019-04-28T14:18:09.946Z,10.90
2019-04-28T14:23:14.040Z,10.80
2019-04-28T14:28:17.353Z,10.80
2019-04-28T14:33:21.125Z,10.70
2019-04-28T14:38:24.863Z,10.80
2019-04-28T14:43:28.355Z,11.00
2019-04-28T14:48:32.033Z,10.90
2019-04-28T14:53:36.416Z,10.90
2019-04-28T15:09:15.630Z,10.80
2019-04-28T15:19:22.497Z,10.80
2019-04-28T15:24:25.925Z,10.80
2019-04-28T15:34:33.171Z,10.70
2019-04-28T15:44:42.477Z,10.60
2019-04-28T15:49:46.111Z,10.60
2019-04-28T15:59:52.950Z,10.70
2019-04-28T16:09:25.099Z,10.70
2019-04-28T16:14:29.135Z,10.70
2019-04-28T16:19:32.469Z,10.60
2019-04-28T16:24:36.463Z,10.60
2019-04-28T16:29:39.833Z,10.70
2019-04-28T16:34:45.040Z,10.70
2019-04-28T16:39:48.304Z,10.70
2019-04-28T16:44:58.728Z,10.70
2019-04-28T16:50:03.387Z,10.70
2019-04-28T16:55:16.466Z,10.80
2019-04-28T17:00:29.463Z,10.50
2019-04-28T17:05:32.809Z,10.60
2019-04-28T17:10:36.466Z,10.70
2019-04-28T17:15:39.878Z,10.80
2019-04-28T17:20:45.455Z,10.70
2019-04-28T17:25:49.060Z,10.60
2019-04-28T17:30:52.751Z,7.70
2019-04-28T17:35:56.394Z,10.60
2019-04-28T17:41:03.866Z,10.60
2019-04-28T17:46:08.608Z,10.70
2019-04-28T17:51:14.502Z,10.70
2019-04-28T17:56:18.241Z,10.80
2019-04-28T18:01:40.089Z,10.70
2019-04-28T18:06:48.967Z,10.70
2019-04-28T18:11:52.841Z,10.70
2019-04-28T18:17:27.650Z,10.70
2019-04-28T18:22:31.074Z,8.40
2019-04-28T18:27:34.401Z,10.60
2019-04-28T18:32:57.720Z,10.60
2019-04-28T18:38:13.471Z,10.70
2019-04-28T18:43:36.701Z,10.60
2019-04-28T18:48:40.821Z,10.60
2019-04-28T18:53:44.773Z,10.60
2019-04-28T18:58:48.997Z,10.60
2019-04-28T19:03:52.886Z,10.70
2019-04-28T19:14:11.596Z,10.50
2019-04-28T19:19:16.349Z,10.40
2019-04-28T19:24:20.906Z,10.30
2019-04-28T19:29:25.556Z,10.40
2019-04-28T19:34:29.616Z,10.30
2019-04-28T19:39:33.735Z,10.20
2019-04-28T19:44:37.428Z,10.10
2019-04-28T19:55:22.651Z,10.10
2019-04-28T20:00:34.637Z,10.10
2019-04-28T20:05:38.035Z,10.00
2019-04-28T20:15:46.239Z,10.00
2019-04-28T20:20:49.577Z,10.10
2019-04-28T20:25:54.023Z,10.00
2019-04-28T20:30:57.950Z,10.00
2019-04-28T20:41:18.189Z,10.00
2019-04-28T20:46:22.140Z,10.00
2019-04-28T20:51:25.420Z,10.00
2019-04-28T20:56:29.129Z,10.00
2019-04-28T21:01:33.481Z,10.00
2019-04-28T21:06:36.833Z,10.00
2019-04-28T21:11:41.221Z,10.00
2019-04-28T21:16:47.361Z,10.00
2019-04-28T21:21:50.632Z,10.00
2019-04-28T21:26:54.855Z,10.00
2019-04-28T21:31:58.667Z,10.00
2019-04-28T21:37:01.953Z,10.00
2019-04-28T21:47:26.343Z,10.00
2019-04-28T22:02:36.630Z,9.90
2019-04-28T22:12:43.751Z,9.80
2019-04-28T22:22:50.444Z,9.90
2019-04-28T22:58:40.290Z,10.00
2019-04-28T23:03:50.362Z,9.90
2019-04-28T23:08:54.339Z,9.90
2019-04-28T23:13:57.677Z,9.80
2019-04-28T23:19:03.129Z,9.80
2019-04-28T23:24:06.663Z,9.70
2019-04-28T23:29:09.939Z,9.80
2019-04-28T23:34:13.212Z,9.70
2019-04-28T23:44:20.913Z,9.70
2019-04-28T23:49:25.586Z,9.70
2019-04-28T23:54:28.874Z,9.70
2019-04-28T23:59:32.936Z,9.70
